메인 페이지
METAR-TAF:

METAR-TAF

공항 :

Vance Air Force Base, 오클라호마, 미국

위도: 36-20N, 경도: 097-55W, 고도: 398m

현재 날씨관측

예보는 51분 전, 13:56시(UTC)에 발표되었습니다.
동북동7kt
온도 21°C
습도 56%
기압 1023 hPa
시정: 16.1km
맑음

METAR: KEND 291356Z AUTO 06007KT 10SM CLR 21/12 A3021 RMK AO2 SLP222 T02110120

시각: 09:47 (14:47 UTC)

예보

예보는 4 시간 47분 전, 10:00시(UTC)에 발표되었습니다.
예보 대상 시간: 29일 10시부터 30일 16시까지 (UTC)
여러 방향의 바람 6kt
시정 10km 이상
고도 25000ft 상공 구름 조금
전환 중
29일 13시부터 29일 14시까지 (UTC)
북동12kt
시정 10km 이상
고도 25000ft 상공 구름 조금
전환 중
29일 14시부터 29일 15시까지 (UTC)
동북동8kt
시정 10km 이상
고도 25000ft 상공 구름 조금
전환 중
29일 23시부터 29일 24시까지 (UTC)
동남동7kt
시정 10km 이상
고도 25000ft 상공 구름 보통
전환 중
30일 14시부터 30일 15시까지 (UTC)
12kt, 순간 최대 풍속 18kt
시정 10km 이상
고도 8000ft 상공 구름 조금

TAF: KEND 291000Z 2910/3016 VRB06KT 9999 FEW250 QNH3015INS BECMG 2913/2914 04012KT 9999 FEW250 QNH3017INS BECMG 2914/2915 07008KT 9999 FEW250 QNH3012INS BECMG 2923/2924 11007KT 9999 SCT250 QNH3012INS BECMG 3014/3015 17012G18KT 9999 FEW080 QNH3017INS TX28/2920Z TN13/2911Z

4,000개 이상의 공항 관측 자료 및 예보 (METAR 및 TAF 보고).

지도상에서 검색 가능한 기상관측소가 노란 점과 빨간 점으로 표시되어 있습니다.

기상관측소 명을 보려면 표시 위로 마우스를 이동하세요.

날씨 관측과 예보를 보려면 클릭하세요.

지도 변경 : 확대하려면 엑스 표시가 있는 녹색 버튼, 축소하려면 빼기 표시가 있는 녹색 버튼, 다음 페이지의 지도를 보려면 녹색 화살표를 클릭하세요.


METAR-TAF: